Time;durP1;ratioP1;P1;durP2;ratioP2;P2;SDS_P1;SDS_P2;PMS_P1;PMS_P2;Temp;Humidity;BMP_temperature;BMP_pressure;BME280_temperature;BME280_humidity;BME280_pressure;Samples;Min_cycle;Max_cycle;Signal;HPM_P1;HPM_P2
2022/05/28 00:01:53;;;;;;;;;;;21.00;79.20;;;;;;5035515;28;20428;-91
2022/05/28 00:04:18;;;;;;;;;;;21.00;79.90;;;;;;5035702;28;20396;-90
2022/05/28 00:06:45;;;;;;;;;;;21.00;80.00;;;;;;5035385;28;20415;-90
2022/05/28 00:09:10;;;;;;;;;;;21.00;80.10;;;;;;5035340;28;20024;-91
2022/05/28 00:11:38;;;;;;;;;;;20.90;80.40;;;;;;5035363;28;19982;-90
2022/05/28 00:14:04;;;;;;;;;;;20.90;81.30;;;;;;5035221;28;19937;-91
2022/05/28 00:16:30;;;;;;;;;;;20.80;80.90;;;;;;5035057;28;19982;-90
2022/05/28 00:18:55;;;;;;;;;;;20.80;81.10;;;;;;5035128;28;19938;-90
2022/05/28 00:21:22;;;;;;;;;;;20.80;81.20;;;;;;5035046;28;19949;-91
2022/05/28 00:23:48;;;;;;;;;;;20.80;80.00;;;;;;5035033;28;19957;-90
2022/05/28 00:26:14;;;;;;;;;;;20.80;80.20;;;;;;5035097;28;19952;-91
2022/05/28 00:28:40;;;;;;;;;;;20.80;80.30;;;;;;5035254;28;20134;-91
2022/05/28 00:31:05;;;;;;;;;;;20.80;80.20;;;;;;5035064;28;19946;-90
2022/05/28 00:33:31;;;;;;;;;;;20.80;80.30;;;;;;5034633;28;20070;-91
2022/05/28 00:35:57;;;;;;;;;;;20.80;80.30;;;;;;5034794;28;20112;-90
2022/05/28 00:38:24;;;;;;;;;;;20.80;79.70;;;;;;5034836;28;19943;-90
2022/05/28 00:40:50;;;;;;;;;;;20.80;79.50;;;;;;5034747;28;20460;-91
2022/05/28 00:43:16;;;;;;;;;;;20.90;79.30;;;;;;5034455;28;19964;-90
2022/05/28 00:45:43;;;;;;;;;;;20.80;79.90;;;;;;5034702;28;20005;-90
2022/05/28 00:48:09;;;;;;;;;;;20.60;80.90;;;;;;5034580;28;20004;-91
2022/05/28 00:50:35;;;;;;;;;;;20.40;82.00;;;;;;5034463;28;20018;-91
2022/05/28 00:53:03;;;;;;;;;;;20.30;82.70;;;;;;5034595;28;19936;-91
2022/05/28 00:55:30;;;;;;;;;;;20.30;83.00;;;;;;5034405;28;19973;-90
2022/05/28 00:57:56;;;;;;;;;;;20.30;82.80;;;;;;5034510;28;20314;-90
2022/05/28 01:00:22;;;;;;;;;;;20.20;82.80;;;;;;5034467;28;19937;-90
2022/05/28 01:03:09;;;;;;;;;;;20.10;83.00;;;;;;5034634;28;19980;-91
2022/05/28 01:05:35;;;;;;;;;;;20.10;82.90;;;;;;5034329;28;20035;-90
2022/05/28 01:08:00;;;;;;;;;;;20.30;83.00;;;;;;5034508;28;20471;-91
2022/05/28 01:10:34;;;;;;;;;;;20.30;82.70;;;;;;5034191;28;19944;-90
2022/05/28 01:13:12;;;;;;;;;;;20.40;82.60;;;;;;5034174;28;20390;-90
2022/05/28 01:15:42;;;;;;;;;;;20.40;82.60;;;;;;5034166;28;19969;-91
2022/05/28 01:18:11;;;;;;;;;;;20.30;82.60;;;;;;5034020;28;19943;-91
2022/05/28 01:20:48;;;;;;;;;;;20.30;83.50;;;;;;5033776;28;20040;-91
2022/05/28 01:23:16;;;;;;;;;;;20.30;83.40;;;;;;5033944;28;19974;-91
2022/05/28 01:25:47;;;;;;;;;;;20.20;83.70;;;;;;5033969;28;19941;-90
2022/05/28 01:28:18;;;;;;;;;;;20.00;84.10;;;;;;5033938;28;19950;-90
2022/05/28 01:30:44;;;;;;;;;;;19.80;84.70;;;;;;5034183;28;20013;-90
2022/05/28 01:33:11;;;;;;;;;;;19.70;85.10;;;;;;5033601;28;20449;-91
2022/05/28 01:35:37;;;;;;;;;;;19.60;85.30;;;;;;5033763;28;19990;-90
2022/05/28 01:38:04;;;;;;;;;;;19.70;85.60;;;;;;5033817;28;20096;-91
2022/05/28 01:40:30;;;;;;;;;;;19.70;85.90;;;;;;5033783;28;19951;-90
2022/05/28 01:42:57;;;;;;;;;;;19.80;85.80;;;;;;5033757;28;19944;-90
2022/05/28 01:45:25;;;;;;;;;;;19.80;85.50;;;;;;5033705;28;19953;-90
2022/05/28 01:47:51;;;;;;;;;;;19.80;85.30;;;;;;5033642;28;19940;-90
2022/05/28 01:50:18;;;;;;;;;;;19.90;85.60;;;;;;5033677;28;20301;-90
2022/05/28 01:52:44;;;;;;;;;;;20.00;85.20;;;;;;5033344;28;19942;-90
2022/05/28 01:55:12;;;;;;;;;;;20.00;85.10;;;;;;5032874;28;19962;-91
2022/05/28 01:57:37;;;;;;;;;;;19.80;85.30;;;;;;5033571;28;20374;-90
2022/05/28 02:00:04;;;;;;;;;;;19.70;85.40;;;;;;5033532;28;20039;-90
2022/05/28 02:02:30;;;;;;;;;;;19.60;85.80;;;;;;5033721;28;20037;-90
2022/05/28 02:04:55;;;;;;;;;;;19.70;85.60;;;;;;5033508;28;20036;-90
2022/05/28 02:07:21;;;;;;;;;;;19.70;85.60;;;;;;5033355;28;20027;-90
2022/05/28 02:09:55;;;;;;;;;;;19.70;85.60;;;;;;5033642;28;19942;-90
2022/05/28 02:12:36;;;;;;;;;;;19.60;85.60;;;;;;5033402;28;20026;-91
2022/05/28 02:15:09;;;;;;;;;;;19.70;85.80;;;;;;5033194;28;20008;-90
2022/05/28 02:17:44;;;;;;;;;;;19.60;85.90;;;;;;5033361;28;19945;-91
2022/05/28 02:20:15;;;;;;;;;;;19.50;86.20;;;;;;5033268;28;20031;-90
2022/05/28 02:22:43;;;;;;;;;;;19.40;86.10;;;;;;5033328;28;19962;-90
2022/05/28 02:25:20;;;;;;;;;;;19.40;86.50;;;;;;5033329;28;19975;-90
2022/05/28 02:27:47;;;;;;;;;;;19.40;86.60;;;;;;5033284;28;20460;-90
2022/05/28 02:30:13;;;;;;;;;;;19.30;86.40;;;;;;5033280;28;20034;-90
2022/05/28 02:32:39;;;;;;;;;;;19.30;86.80;;;;;;5033067;28;20413;-90
2022/05/28 02:35:05;;;;;;;;;;;19.30;87.20;;;;;;5033030;28;19948;-90
2022/05/28 02:37:30;;;;;;;;;;;19.30;87.10;;;;;;5033165;28;19952;-90
2022/05/28 02:39:57;;;;;;;;;;;19.30;87.10;;;;;;5033220;28;20341;-90
2022/05/28 02:42:23;;;;;;;;;;;19.30;87.40;;;;;;5033056;28;19942;-90
2022/05/28 02:44:49;;;;;;;;;;;19.30;87.50;;;;;;5033177;28;19948;-90
2022/05/28 02:47:14;;;;;;;;;;;19.30;87.20;;;;;;5033101;28;20042;-90
2022/05/28 02:49:40;;;;;;;;;;;19.30;87.00;;;;;;5033123;28;19978;-91
2022/05/28 02:52:06;;;;;;;;;;;19.30;87.10;;;;;;5033035;28;19992;-90
2022/05/28 02:54:32;;;;;;;;;;;19.20;87.10;;;;;;5032995;28;19976;-90
2022/05/28 02:56:57;;;;;;;;;;;19.10;87.30;;;;;;5033045;28;19935;-91
2022/05/28 02:59:23;;;;;;;;;;;19.20;87.50;;;;;;5033302;28;19947;-90
2022/05/28 03:01:49;;;;;;;;;;;19.30;87.30;;;;;;5033066;28;20312;-90
2022/05/28 03:04:15;;;;;;;;;;;19.30;87.40;;;;;;5032944;28;19981;-90
2022/05/28 03:06:40;;;;;;;;;;;19.30;87.30;;;;;;5036441;28;19989;-90
2022/05/28 03:09:06;;;;;;;;;;;19.30;87.10;;;;;;5036612;28;19953;-90
2022/05/28 03:11:32;;;;;;;;;;;19.40;86.80;;;;;;5036618;28;19939;-91
2022/05/28 03:13:58;;;;;;;;;;;19.50;86.60;;;;;;5036493;28;19945;-90
2022/05/28 03:16:23;;;;;;;;;;;19.50;86.60;;;;;;5036476;28;20449;-90
2022/05/28 03:18:49;;;;;;;;;;;19.40;86.80;;;;;;5036378;28;20019;-91
2022/05/28 03:21:15;;;;;;;;;;;19.40;86.90;;;;;;5036329;28;19949;-91
2022/05/28 03:23:40;;;;;;;;;;;19.40;86.90;;;;;;5036235;28;19960;-91
2022/05/28 03:26:13;;;;;;;;;;;19.30;86.80;;;;;;5035032;28;20313;-90
2022/05/28 03:28:38;;;;;;;;;;;19.30;86.90;;;;;;5036068;28;19950;-90
2022/05/28 03:31:04;;;;;;;;;;;19.30;86.90;;;;;;5036213;28;20041;-91
2022/05/28 03:33:29;;;;;;;;;;;19.40;86.70;;;;;;5035766;28;20332;-90
2022/05/28 03:35:55;;;;;;;;;;;19.20;86.40;;;;;;5036001;28;20324;-90
2022/05/28 03:38:20;;;;;;;;;;;18.90;87.00;;;;;;5036166;28;19944;-90
2022/05/28 03:40:46;;;;;;;;;;;18.90;87.30;;;;;;5036113;28;19945;-90
2022/05/28 03:43:11;;;;;;;;;;;18.90;87.60;;;;;;5036010;28;19946;-90
2022/05/28 03:45:37;;;;;;;;;;;19.00;88.00;;;;;;5035870;28;19956;-90
2022/05/28 03:48:04;;;;;;;;;;;19.00;87.80;;;;;;5035840;28;19944;-90
2022/05/28 03:50:29;;;;;;;;;;;19.10;87.80;;;;;;5035707;28;19955;-90
2022/05/28 03:52:55;;;;;;;;;;;19.20;87.70;;;;;;5035789;28;19936;-90
2022/05/28 03:55:20;;;;;;;;;;;19.20;87.50;;;;;;5035708;28;20002;-90
2022/05/28 03:57:47;;;;;;;;;;;19.30;87.50;;;;;;5036012;28;19978;-90
2022/05/28 04:00:14;;;;;;;;;;;19.30;87.50;;;;;;5035644;28;19943;-90
2022/05/28 04:02:39;;;;;;;;;;;19.30;87.40;;;;;;5035488;28;19934;-90
2022/05/28 04:05:05;;;;;;;;;;;19.60;87.00;;;;;;5035534;28;20304;-90
2022/05/28 04:07:30;;;;;;;;;;;19.60;86.80;;;;;;5035350;28;20406;-90
2022/05/28 04:09:56;;;;;;;;;;;19.60;86.80;;;;;;5035352;28;19943;-90
2022/05/28 04:12:21;;;;;;;;;;;19.50;86.80;;;;;;5035300;28;19943;-90
2022/05/28 04:14:48;;;;;;;;;;;19.50;87.10;;;;;;5035227;28;20317;-90
2022/05/28 04:17:13;;;;;;;;;;;19.40;87.30;;;;;;5034611;28;20392;-90
2022/05/28 04:19:39;;;;;;;;;;;19.50;87.30;;;;;;5035161;28;19950;-90
2022/05/28 04:22:05;;;;;;;;;;;19.50;87.40;;;;;;5035168;28;19993;-91
2022/05/28 04:24:30;;;;;;;;;;;19.60;87.40;;;;;;5034986;28;19961;-90
2022/05/28 04:26:56;;;;;;;;;;;19.60;87.40;;;;;;5035000;28;19960;-90
2022/05/28 04:29:21;;;;;;;;;;;19.70;87.30;;;;;;5035117;28;19940;-90
2022/05/28 04:31:47;;;;;;;;;;;19.80;87.20;;;;;;5034746;28;19943;-90
2022/05/28 04:34:12;;;;;;;;;;;19.80;86.90;;;;;;5034780;28;19960;-90
2022/05/28 04:36:38;;;;;;;;;;;20.00;86.80;;;;;;5034799;28;19974;-90
2022/05/28 04:39:03;;;;;;;;;;;20.00;86.70;;;;;;5034722;28;20021;-90
2022/05/28 04:41:29;;;;;;;;;;;20.20;86.50;;;;;;5034649;28;20026;-90
2022/05/28 04:43:54;;;;;;;;;;;20.30;86.30;;;;;;5034697;28;20382;-90
2022/05/28 04:46:20;;;;;;;;;;;20.30;85.90;;;;;;5034633;28;19942;-90
2022/05/28 04:48:46;;;;;;;;;;;20.40;85.70;;;;;;5034605;28;20308;-90
2022/05/28 04:51:12;;;;;;;;;;;20.50;85.40;;;;;;5034456;28;20304;-90
2022/05/28 04:53:38;;;;;;;;;;;20.60;85.00;;;;;;5034508;28;19984;-90
2022/05/28 04:56:04;;;;;;;;;;;20.70;84.80;;;;;;5034275;28;20012;-90
2022/05/28 04:58:29;;;;;;;;;;;20.80;84.70;;;;;;5034252;28;19940;-90
2022/05/28 05:00:55;;;;;;;;;;;20.80;84.70;;;;;;5034360;28;20358;-90
2022/05/28 05:03:21;;;;;;;;;;;20.80;84.60;;;;;;5034309;28;19940;-90
2022/05/28 05:05:46;;;;;;;;;;;20.90;84.60;;;;;;5034051;28;20327;-90
2022/05/28 05:08:12;;;;;;;;;;;21.00;84.60;;;;;;5034136;28;19973;-90
2022/05/28 05:10:37;;;;;;;;;;;21.10;84.50;;;;;;5032799;28;19983;-90
2022/05/28 05:13:03;;;;;;;;;;;21.20;84.40;;;;;;5034063;28;20040;-90
2022/05/28 05:15:29;;;;;;;;;;;21.20;84.00;;;;;;5032623;28;19975;-90
2022/05/28 05:17:54;;;;;;;;;;;21.30;83.50;;;;;;5034021;28;19941;-89
2022/05/28 05:20:20;;;;;;;;;;;21.50;83.60;;;;;;5033674;28;19941;-90
2022/05/28 05:22:45;;;;;;;;;;;21.60;83.50;;;;;;5033624;28;19972;-90
2022/05/28 05:25:12;;;;;;;;;;;21.60;83.50;;;;;;5033781;28;19943;-90
2022/05/28 05:27:38;;;;;;;;;;;21.70;83.10;;;;;;5033517;28;19956;-90
2022/05/28 05:30:04;;;;;;;;;;;21.80;82.80;;;;;;5033227;28;19945;-90
2022/05/28 05:32:30;;;;;;;;;;;21.80;82.40;;;;;;5041231;23;20453;-90
2022/05/28 05:34:55;;;;;;;;;;;21.90;82.00;;;;;;5033502;28;19978;-90
2022/05/28 05:37:21;;;;;;;;;;;21.90;81.60;;;;;;5033662;28;19943;-90
2022/05/28 05:39:46;;;;;;;;;;;22.00;81.50;;;;;;5033616;28;19944;-90
2022/05/28 05:42:12;;;;;;;;;;;22.00;81.60;;;;;;5033489;28;19945;-90
2022/05/28 05:44:38;;;;;;;;;;;22.10;81.40;;;;;;5032165;28;20466;-90
2022/05/28 05:47:04;;;;;;;;;;;22.20;81.30;;;;;;5028279;28;20033;-90
2022/05/28 05:49:29;;;;;;;;;;;22.30;81.30;;;;;;5021553;28;19964;-90
2022/05/28 05:51:55;;;;;;;;;;;22.30;81.40;;;;;;5041358;28;20295;-90
2022/05/28 05:54:21;;;;;;;;;;;22.40;81.60;;;;;;5033094;28;19942;-90
2022/05/28 05:56:46;;;;;;;;;;;22.50;81.20;;;;;;5021771;28;19976;-90
2022/05/28 05:59:12;;;;;;;;;;;22.50;80.90;;;;;;5051390;28;19938;-90
2022/05/28 06:01:38;;;;;;;;;;;22.50;81.10;;;;;;5032070;28;19949;-90
2022/05/28 06:04:04;;;;;;;;;;;22.60;81.10;;;;;;5030959;28;19946;-90
2022/05/28 06:06:29;;;;;;;;;;;22.60;81.40;;;;;;5036234;28;19998;-90
2022/05/28 06:08:55;;;;;;;;;;;22.70;82.10;;;;;;5033286;28;19985;-90
2022/05/28 06:11:21;;;;;;;;;;;22.80;82.10;;;;;;5030137;28;19951;-90
2022/05/28 06:13:46;;;;;;;;;;;22.80;81.60;;;;;;5027697;28;19953;-90
2022/05/28 06:16:12;;;;;;;;;;;22.90;81.20;;;;;;5033234;28;20455;-90
2022/05/28 06:18:37;;;;;;;;;;;23.00;81.20;;;;;;5027202;28;19954;-90
2022/05/28 06:21:03;;;;;;;;;;;23.00;81.00;;;;;;5032974;28;19945;-90
2022/05/28 06:23:29;;;;;;;;;;;23.20;80.60;;;;;;5032363;28;19978;-90
2022/05/28 06:25:55;;;;;;;;;;;23.30;80.00;;;;;;5038495;28;19956;-90
2022/05/28 06:28:20;;;;;;;;;;;23.30;79.80;;;;;;5032306;28;19951;-90
2022/05/28 06:30:49;;;;;;;;;;;23.30;79.30;;;;;;5034847;28;19951;-90
2022/05/28 06:33:15;;;;;;;;;;;23.40;78.20;;;;;;5041857;28;20052;-90
2022/05/28 06:35:41;;;;;;;;;;;23.40;77.10;;;;;;5013157;28;20432;-90
2022/05/28 06:38:07;;;;;;;;;;;23.50;77.30;;;;;;5040088;28;19951;-90
2022/05/28 06:40:33;;;;;;;;;;;23.50;77.00;;;;;;5039089;28;19947;-90
2022/05/28 06:42:59;;;;;;;;;;;23.60;76.20;;;;;;5036873;28;19950;-90
2022/05/28 06:45:24;;;;;;;;;;;23.60;75.90;;;;;;5035411;28;19944;-90
2022/05/28 06:47:50;;;;;;;;;;;23.60;75.70;;;;;;5035379;28;19968;-90
2022/05/28 06:53:01;;;;;;;;;;;23.70;76.00;;;;;;5041608;28;20081;-90
2022/05/28 06:55:27;;;;;;;;;;;23.80;75.90;;;;;;5042212;28;19956;-90
2022/05/28 06:57:53;;;;;;;;;;;23.90;76.00;;;;;;5029340;28;19958;-91
2022/05/28 07:00:18;;;;;;;;;;;24.00;75.70;;;;;;5036507;28;20196;-91
2022/05/28 07:02:44;;;;;;;;;;;24.10;75.70;;;;;;5035576;28;19946;-90
2022/05/28 07:05:13;;;;;;;;;;;24.20;75.50;;;;;;5031773;28;20303;-90
2022/05/28 07:07:39;;;;;;;;;;;24.30;75.70;;;;;;5051538;28;20326;-90
2022/05/28 07:10:05;;;;;;;;;;;24.40;75.20;;;;;;5035944;28;19954;-90
2022/05/28 07:12:31;;;;;;;;;;;24.60;74.10;;;;;;5034935;28;20380;-91
2022/05/28 07:14:56;;;;;;;;;;;24.70;74.10;;;;;;5033810;28;20002;-91
2022/05/28 07:17:22;;;;;;;;;;;24.70;73.20;;;;;;5019201;28;19949;-91
2022/05/28 07:19:48;;;;;;;;;;;24.80;71.90;;;;;;5032362;28;19988;-91
2022/05/28 07:22:14;;;;;;;;;;;24.70;71.60;;;;;;5025843;28;19982;-91
2022/05/28 07:24:40;;;;;;;;;;;24.70;71.30;;;;;;5034158;28;19951;-91
2022/05/28 07:27:05;;;;;;;;;;;24.80;70.70;;;;;;5036024;28;19952;-91
2022/05/28 07:29:31;;;;;;;;;;;24.80;70.20;;;;;;5035434;28;20056;-91
2022/05/28 07:31:56;;;;;;;;;;;24.90;69.80;;;;;;5027080;28;20063;-91
2022/05/28 07:34:22;;;;;;;;;;;24.90;69.90;;;;;;5027176;28;20102;-91
2022/05/28 07:36:48;;;;;;;;;;;24.90;69.70;;;;;;5044445;28;20032;-91
2022/05/28 07:39:14;;;;;;;;;;;25.00;69.70;;;;;;5034386;28;20036;-91
2022/05/28 07:41:39;;;;;;;;;;;25.10;69.60;;;;;;5034321;28;20072;-91
2022/05/28 07:44:05;;;;;;;;;;;25.20;69.50;;;;;;5026933;28;20471;-91
2022/05/28 07:46:31;;;;;;;;;;;25.20;68.70;;;;;;5030502;28;19940;-91
2022/05/28 07:48:58;;;;;;;;;;;25.30;68.20;;;;;;5033616;28;19946;-91
2022/05/28 07:51:23;;;;;;;;;;;25.30;67.60;;;;;;5038714;28;19942;-91
2022/05/28 07:53:49;;;;;;;;;;;25.40;67.70;;;;;;5023817;28;20094;-91
2022/05/28 07:56:15;;;;;;;;;;;25.40;67.50;;;;;;5036702;28;19967;-91
2022/05/28 07:58:40;;;;;;;;;;;25.50;66.40;;;;;;5043848;28;19950;-91
2022/05/28 08:01:06;;;;;;;;;;;25.60;65.60;;;;;;5033301;28;19946;-91
2022/05/28 08:03:32;;;;;;;;;;;25.80;64.40;;;;;;5024617;28;19947;-91
2022/05/28 08:05:57;;;;;;;;;;;25.80;62.80;;;;;;5034538;28;19944;-91
2022/05/28 08:08:24;;;;;;;;;;;25.90;60.30;;;;;;5032077;28;19947;-92
2022/05/28 08:10:50;;;;;;;;;;;26.00;59.50;;;;;;5035057;28;19955;-91
2022/05/28 08:13:16;;;;;;;;;;;26.10;59.00;;;;;;5031475;28;20364;-91
